sensor_id;sensor_type;location;lat;lon;timestamp;temperature;humidity
5041;DHT22;2539;52.568;13.364;2023-12-28T00:01:40;4.70;99.90
5041;DHT22;2539;52.568;13.364;2023-12-28T00:04:06;4.70;99.90
5041;DHT22;2539;52.568;13.364;2023-12-28T00:06:32;4.70;99.90
5041;DHT22;2539;52.568;13.364;2023-12-28T00:08:58;4.70;99.90
5041;DHT22;2539;52.568;13.364;2023-12-28T00:11:26;4.70;99.90
5041;DHT22;2539;52.568;13.364;2023-12-28T00:13:52;4.70;99.90
5041;DHT22;2539;52.568;13.364;2023-12-28T00:16:19;4.70;99.90
5041;DHT22;2539;52.568;13.364;2023-12-28T00:18:45;4.70;99.90
5041;DHT22;2539;52.568;13.364;2023-12-28T00:21:11;4.70;99.90
5041;DHT22;2539;52.568;13.364;2023-12-28T00:23:37;4.70;99.90
5041;DHT22;2539;52.568;13.364;2023-12-28T00:26:04;4.70;99.90
5041;DHT22;2539;52.568;13.364;2023-12-28T00:28:30;4.70;99.90
5041;DHT22;2539;52.568;13.364;2023-12-28T00:30:56;4.80;99.90
5041;DHT22;2539;52.568;13.364;2023-12-28T00:33:23;4.80;99.90
5041;DHT22;2539;52.568;13.364;2023-12-28T00:35:49;4.80;99.90
5041;DHT22;2539;52.568;13.364;2023-12-28T00:38:15;4.80;99.90
5041;DHT22;2539;52.568;13.364;2023-12-28T00:40:42;4.80;99.90
5041;DHT22;2539;52.568;13.364;2023-12-28T00:43:08;4.80;99.90
5041;DHT22;2539;52.568;13.364;2023-12-28T00:45:34;4.80;99.90
5041;DHT22;2539;52.568;13.364;2023-12-28T00:48:00;4.80;99.90
5041;DHT22;2539;52.568;13.364;2023-12-28T00:50:27;4.70;99.90
5041;DHT22;2539;52.568;13.364;2023-12-28T00:53:01;4.70;99.90
5041;DHT22;2539;52.568;13.364;2023-12-28T00:55:30;4.80;99.90
5041;DHT22;2539;52.568;13.364;2023-12-28T00:58:02;4.80;99.90
5041;DHT22;2539;52.568;13.364;2023-12-28T01:00:28;4.80;99.90
5041;DHT22;2539;52.568;13.364;2023-12-28T01:02:55;4.80;99.90
5041;DHT22;2539;52.568;13.364;2023-12-28T01:05:21;4.80;99.90
5041;DHT22;2539;52.568;13.364;2023-12-28T01:07:48;4.70;99.90
5041;DHT22;2539;52.568;13.364;2023-12-28T01:10:18;4.70;99.90
5041;DHT22;2539;52.568;13.364;2023-12-28T01:12:45;4.70;99.90
5041;DHT22;2539;52.568;13.364;2023-12-28T01:15:11;4.60;99.90
5041;DHT22;2539;52.568;13.364;2023-12-28T01:17:37;4.60;99.90
5041;DHT22;2539;52.568;13.364;2023-12-28T01:20:04;4.60;99.90
5041;DHT22;2539;52.568;13.364;2023-12-28T01:22:29;4.60;99.90
5041;DHT22;2539;52.568;13.364;2023-12-28T01:24:55;4.60;99.90
5041;DHT22;2539;52.568;13.364;2023-12-28T01:27:21;4.50;99.90
5041;DHT22;2539;52.568;13.364;2023-12-28T01:29:47;4.60;99.90
5041;DHT22;2539;52.568;13.364;2023-12-28T01:32:13;4.60;99.90
5041;DHT22;2539;52.568;13.364;2023-12-28T01:34:40;4.60;99.90
5041;DHT22;2539;52.568;13.364;2023-12-28T01:37:08;4.60;99.90
5041;DHT22;2539;52.568;13.364;2023-12-28T01:42:06;4.60;99.90
5041;DHT22;2539;52.568;13.364;2023-12-28T01:44:32;4.60;99.90
5041;DHT22;2539;52.568;13.364;2023-12-28T01:46:59;4.60;99.90
5041;DHT22;2539;52.568;13.364;2023-12-28T01:49:25;4.70;99.90
5041;DHT22;2539;52.568;13.364;2023-12-28T01:51:52;4.70;99.90
5041;DHT22;2539;52.568;13.364;2023-12-28T01:54:19;4.70;99.90
5041;DHT22;2539;52.568;13.364;2023-12-28T01:56:45;4.70;99.90
5041;DHT22;2539;52.568;13.364;2023-12-28T01:59:12;4.70;99.90
5041;DHT22;2539;52.568;13.364;2023-12-28T02:01:38;4.70;99.90
5041;DHT22;2539;52.568;13.364;2023-12-28T02:04:04;4.80;99.90
5041;DHT22;2539;52.568;13.364;2023-12-28T02:06:31;4.80;99.90
5041;DHT22;2539;52.568;13.364;2023-12-28T02:08:58;4.90;99.90
5041;DHT22;2539;52.568;13.364;2023-12-28T02:11:24;5.20;99.90
5041;DHT22;2539;52.568;13.364;2023-12-28T02:13:50;5.20;99.90
5041;DHT22;2539;52.568;13.364;2023-12-28T02:16:25;5.30;99.90
5041;DHT22;2539;52.568;13.364;2023-12-28T02:18:56;5.40;99.90
5041;DHT22;2539;52.568;13.364;2023-12-28T02:21:25;5.50;99.90
5041;DHT22;2539;52.568;13.364;2023-12-28T02:23:51;5.60;99.90
5041;DHT22;2539;52.568;13.364;2023-12-28T02:26:18;5.60;99.90
5041;DHT22;2539;52.568;13.364;2023-12-28T02:28:47;5.80;99.90
5041;DHT22;2539;52.568;13.364;2023-12-28T02:31:21;5.90;99.90
5041;DHT22;2539;52.568;13.364;2023-12-28T02:33:58;5.90;99.90
5041;DHT22;2539;52.568;13.364;2023-12-28T02:36:26;6.10;99.90
5041;DHT22;2539;52.568;13.364;2023-12-28T02:38:55;6.10;99.90
5041;DHT22;2539;52.568;13.364;2023-12-28T02:41:22;6.20;99.90
5041;DHT22;2539;52.568;13.364;2023-12-28T02:43:49;6.30;99.90
5041;DHT22;2539;52.568;13.364;2023-12-28T02:46:15;6.40;99.90
5041;DHT22;2539;52.568;13.364;2023-12-28T02:48:42;6.40;99.90
5041;DHT22;2539;52.568;13.364;2023-12-28T02:51:08;6.40;99.90
5041;DHT22;2539;52.568;13.364;2023-12-28T02:53:34;6.60;99.90
5041;DHT22;2539;52.568;13.364;2023-12-28T02:56:00;6.60;99.90
5041;DHT22;2539;52.568;13.364;2023-12-28T02:58:27;6.80;99.90
5041;DHT22;2539;52.568;13.364;2023-12-28T03:00:53;6.90;99.90
5041;DHT22;2539;52.568;13.364;2023-12-28T03:03:19;7.00;99.90
5041;DHT22;2539;52.568;13.364;2023-12-28T03:05:46;7.10;99.90
5041;DHT22;2539;52.568;13.364;2023-12-28T03:08:12;7.20;99.90
5041;DHT22;2539;52.568;13.364;2023-12-28T03:10:39;7.30;99.90
5041;DHT22;2539;52.568;13.364;2023-12-28T03:13:05;7.40;99.90
5041;DHT22;2539;52.568;13.364;2023-12-28T03:15:32;7.50;99.90
5041;DHT22;2539;52.568;13.364;2023-12-28T03:17:58;7.60;99.90
5041;DHT22;2539;52.568;13.364;2023-12-28T03:20:25;7.70;99.90
5041;DHT22;2539;52.568;13.364;2023-12-28T03:22:51;7.70;99.90
5041;DHT22;2539;52.568;13.364;2023-12-28T03:25:17;7.70;99.90
5041;DHT22;2539;52.568;13.364;2023-12-28T03:27:43;7.80;99.90
5041;DHT22;2539;52.568;13.364;2023-12-28T03:30:10;7.90;99.90
5041;DHT22;2539;52.568;13.364;2023-12-28T03:32:37;7.80;99.90
5041;DHT22;2539;52.568;13.364;2023-12-28T03:35:04;7.90;99.90
5041;DHT22;2539;52.568;13.364;2023-12-28T03:37:30;7.90;99.90
5041;DHT22;2539;52.568;13.364;2023-12-28T03:39:56;7.90;99.90
5041;DHT22;2539;52.568;13.364;2023-12-28T03:42:22;7.90;99.90
5041;DHT22;2539;52.568;13.364;2023-12-28T03:44:49;7.90;99.90
5041;DHT22;2539;52.568;13.364;2023-12-28T03:47:15;7.80;99.90
5041;DHT22;2539;52.568;13.364;2023-12-28T03:49:41;7.80;99.90
5041;DHT22;2539;52.568;13.364;2023-12-28T03:52:07;7.70;99.90
5041;DHT22;2539;52.568;13.364;2023-12-28T03:54:33;7.80;99.90
5041;DHT22;2539;52.568;13.364;2023-12-28T03:57:00;7.70;99.90
5041;DHT22;2539;52.568;13.364;2023-12-28T03:59:26;7.70;99.90
5041;DHT22;2539;52.568;13.364;2023-12-28T04:01:52;7.70;99.90
5041;DHT22;2539;52.568;13.364;2023-12-28T04:04:19;7.60;99.90
5041;DHT22;2539;52.568;13.364;2023-12-28T04:06:45;7.60;99.90
5041;DHT22;2539;52.568;13.364;2023-12-28T04:09:12;7.60;99.90
5041;DHT22;2539;52.568;13.364;2023-12-28T04:11:38;7.70;99.90
5041;DHT22;2539;52.568;13.364;2023-12-28T04:14:05;7.70;99.90
5041;DHT22;2539;52.568;13.364;2023-12-28T04:16:31;7.70;99.90
5041;DHT22;2539;52.568;13.364;2023-12-28T04:18:57;7.80;99.90
5041;DHT22;2539;52.568;13.364;2023-12-28T04:21:23;7.80;99.90
5041;DHT22;2539;52.568;13.364;2023-12-28T04:23:49;7.90;99.90
5041;DHT22;2539;52.568;13.364;2023-12-28T04:26:18;7.90;99.90
5041;DHT22;2539;52.568;13.364;2023-12-28T04:28:45;7.90;99.90
5041;DHT22;2539;52.568;13.364;2023-12-28T04:31:11;8.00;99.90
5041;DHT22;2539;52.568;13.364;2023-12-28T04:33:38;8.00;99.90
5041;DHT22;2539;52.568;13.364;2023-12-28T04:36:04;8.00;99.90
5041;DHT22;2539;52.568;13.364;2023-12-28T04:38:31;7.90;99.90
5041;DHT22;2539;52.568;13.364;2023-12-28T04:40:58;7.90;99.90
5041;DHT22;2539;52.568;13.364;2023-12-28T04:43:25;8.00;99.90
5041;DHT22;2539;52.568;13.364;2023-12-28T04:45:51;8.00;99.90
5041;DHT22;2539;52.568;13.364;2023-12-28T04:48:18;8.00;99.90
5041;DHT22;2539;52.568;13.364;2023-12-28T04:50:50;8.00;99.90
5041;DHT22;2539;52.568;13.364;2023-12-28T04:53:16;8.10;99.90
5041;DHT22;2539;52.568;13.364;2023-12-28T04:55:42;8.00;99.90
5041;DHT22;2539;52.568;13.364;2023-12-28T04:58:10;8.10;99.90
5041;DHT22;2539;52.568;13.364;2023-12-28T05:00:36;8.00;99.90
5041;DHT22;2539;52.568;13.364;2023-12-28T05:03:03;8.00;99.90
5041;DHT22;2539;52.568;13.364;2023-12-28T05:05:29;8.10;99.90
5041;DHT22;2539;52.568;13.364;2023-12-28T05:07:55;8.10;99.90
5041;DHT22;2539;52.568;13.364;2023-12-28T05:10:21;8.10;99.90
5041;DHT22;2539;52.568;13.364;2023-12-28T05:12:48;8.10;99.90
5041;DHT22;2539;52.568;13.364;2023-12-28T05:15:14;8.10;99.90
5041;DHT22;2539;52.568;13.364;2023-12-28T05:17:40;8.00;99.90
5041;DHT22;2539;52.568;13.364;2023-12-28T05:20:07;8.00;99.90
5041;DHT22;2539;52.568;13.364;2023-12-28T05:22:33;8.10;99.90
5041;DHT22;2539;52.568;13.364;2023-12-28T05:25:00;8.10;99.90
5041;DHT22;2539;52.568;13.364;2023-12-28T05:27:26;8.10;99.90
5041;DHT22;2539;52.568;13.364;2023-12-28T05:29:52;8.10;99.90
5041;DHT22;2539;52.568;13.364;2023-12-28T05:32:18;8.10;99.90
5041;DHT22;2539;52.568;13.364;2023-12-28T05:34:45;8.10;99.90
5041;DHT22;2539;52.568;13.364;2023-12-28T05:37:11;8.00;99.90
5041;DHT22;2539;52.568;13.364;2023-12-28T05:39:37;8.00;99.90
5041;DHT22;2539;52.568;13.364;2023-12-28T05:42:04;8.00;99.90
5041;DHT22;2539;52.568;13.364;2023-12-28T05:44:30;8.10;99.90
5041;DHT22;2539;52.568;13.364;2023-12-28T05:46:56;8.10;99.90
5041;DHT22;2539;52.568;13.364;2023-12-28T05:49:23;8.10;99.90
5041;DHT22;2539;52.568;13.364;2023-12-28T05:51:51;8.00;99.90
5041;DHT22;2539;52.568;13.364;2023-12-28T05:54:17;8.10;99.90
5041;DHT22;2539;52.568;13.364;2023-12-28T05:56:43;8.10;99.90
5041;DHT22;2539;52.568;13.364;2023-12-28T05:59:09;8.10;99.90
5041;DHT22;2539;52.568;13.364;2023-12-28T06:01:42;8.00;99.90
5041;DHT22;2539;52.568;13.364;2023-12-28T06:04:09;8.10;99.90
5041;DHT22;2539;52.568;13.364;2023-12-28T06:06:35;8.00;99.90
5041;DHT22;2539;52.568;13.364;2023-12-28T06:09:02;8.00;99.90
5041;DHT22;2539;52.568;13.364;2023-12-28T06:11:29;8.00;99.90
5041;DHT22;2539;52.568;13.364;2023-12-28T06:13:56;7.90;99.90
5041;DHT22;2539;52.568;13.364;2023-12-28T06:16:22;8.00;99.90
5041;DHT22;2539;52.568;13.364;2023-12-28T06:18:49;8.00;99.90
5041;DHT22;2539;52.568;13.364;2023-12-28T06:21:15;8.00;99.90
5041;DHT22;2539;52.568;13.364;2023-12-28T06:23:42;8.10;99.90
5041;DHT22;2539;52.568;13.364;2023-12-28T06:26:08;8.00;99.90
5041;DHT22;2539;52.568;13.364;2023-12-28T06:28:34;8.10;99.90
5041;DHT22;2539;52.568;13.364;2023-12-28T06:31:00;8.10;99.90
5041;DHT22;2539;52.568;13.364;2023-12-28T06:33:27;8.10;99.90
5041;DHT22;2539;52.568;13.364;2023-12-28T06:35:54;8.20;99.90
5041;DHT22;2539;52.568;13.364;2023-12-28T06:38:21;8.10;99.90
5041;DHT22;2539;52.568;13.364;2023-12-28T06:40:47;8.10;99.90
5041;DHT22;2539;52.568;13.364;2023-12-28T06:43:13;8.00;99.90
5041;DHT22;2539;52.568;13.364;2023-12-28T06:45:39;8.10;99.90
5041;DHT22;2539;52.568;13.364;2023-12-28T06:48:06;8.00;99.90
5041;DHT22;2539;52.568;13.364;2023-12-28T06:50:32;8.00;99.90
5041;DHT22;2539;52.568;13.364;2023-12-28T06:52:58;8.00;99.90
5041;DHT22;2539;52.568;13.364;2023-12-28T06:55:24;8.00;99.90
5041;DHT22;2539;52.568;13.364;2023-12-28T06:57:51;8.00;99.90
5041;DHT22;2539;52.568;13.364;2023-12-28T07:00:17;8.00;99.90
5041;DHT22;2539;52.568;13.364;2023-12-28T07:02:43;8.00;99.90
5041;DHT22;2539;52.568;13.364;2023-12-28T07:05:09;8.00;99.90
5041;DHT22;2539;52.568;13.364;2023-12-28T07:07:36;7.90;99.90
5041;DHT22;2539;52.568;13.364;2023-12-28T07:10:03;7.90;99.90
5041;DHT22;2539;52.568;13.364;2023-12-28T07:12:30;7.90;99.90
5041;DHT22;2539;52.568;13.364;2023-12-28T07:14:56;7.90;99.90
5041;DHT22;2539;52.568;13.364;2023-12-28T07:17:22;8.00;99.90
5041;DHT22;2539;52.568;13.364;2023-12-28T07:19:48;7.90;99.90
5041;DHT22;2539;52.568;13.364;2023-12-28T07:22:15;7.90;99.90
5041;DHT22;2539;52.568;13.364;2023-12-28T07:24:41;7.90;99.90
5041;DHT22;2539;52.568;13.364;2023-12-28T07:27:07;8.00;99.90
5041;DHT22;2539;52.568;13.364;2023-12-28T07:29:33;7.90;99.90
5041;DHT22;2539;52.568;13.364;2023-12-28T07:31:59;7.90;99.90
5041;DHT22;2539;52.568;13.364;2023-12-28T07:34:26;7.90;99.90
5041;DHT22;2539;52.568;13.364;2023-12-28T07:36:52;8.00;99.90
5041;DHT22;2539;52.568;13.364;2023-12-28T07:39:18;8.00;99.90
5041;DHT22;2539;52.568;13.364;2023-12-28T07:41:45;7.90;99.90
5041;DHT22;2539;52.568;13.364;2023-12-28T07:44:11;7.90;99.90
5041;DHT22;2539;52.568;13.364;2023-12-28T07:46:37;7.90;99.90
5041;DHT22;2539;52.568;13.364;2023-12-28T07:49:03;8.00;99.90
5041;DHT22;2539;52.568;13.364;2023-12-28T07:51:29;8.00;99.90
5041;DHT22;2539;52.568;13.364;2023-12-28T07:53:56;8.00;99.90
5041;DHT22;2539;52.568;13.364;2023-12-28T07:56:22;8.00;99.90
5041;DHT22;2539;52.568;13.364;2023-12-28T07:58:48;8.00;99.90
5041;DHT22;2539;52.568;13.364;2023-12-28T08:01:14;8.10;99.90
5041;DHT22;2539;52.568;13.364;2023-12-28T08:03:41;8.20;99.90
5041;DHT22;2539;52.568;13.364;2023-12-28T08:06:07;8.10;99.90
5041;DHT22;2539;52.568;13.364;2023-12-28T08:08:33;8.10;99.90
5041;DHT22;2539;52.568;13.364;2023-12-28T08:11:00;8.20;99.90
5041;DHT22;2539;52.568;13.364;2023-12-28T08:13:26;8.30;99.90
5041;DHT22;2539;52.568;13.364;2023-12-28T08:15:52;8.30;99.90
5041;DHT22;2539;52.568;13.364;2023-12-28T08:18:19;8.30;99.90
5041;DHT22;2539;52.568;13.364;2023-12-28T08:20:45;8.30;99.90
5041;DHT22;2539;52.568;13.364;2023-12-28T08:23:11;8.30;99.90
5041;DHT22;2539;52.568;13.364;2023-12-28T08:25:37;8.40;99.90
5041;DHT22;2539;52.568;13.364;2023-12-28T08:28:04;8.40;99.90
5041;DHT22;2539;52.568;13.364;2023-12-28T08:30:30;8.50;99.90
5041;DHT22;2539;52.568;13.364;2023-12-28T08:32:56;8.50;99.90
5041;DHT22;2539;52.568;13.364;2023-12-28T08:35:22;8.50;99.90
5041;DHT22;2539;52.568;13.364;2023-12-28T08:37:49;8.50;99.90
5041;DHT22;2539;52.568;13.364;2023-12-28T08:40:16;8.50;99.90
5041;DHT22;2539;52.568;13.364;2023-12-28T08:42:42;8.50;99.90
5041;DHT22;2539;52.568;13.364;2023-12-28T08:45:09;8.60;99.90
5041;DHT22;2539;52.568;13.364;2023-12-28T08:47:35;8.50;99.90
5041;DHT22;2539;52.568;13.364;2023-12-28T08:50:01;8.50;99.90
5041;DHT22;2539;52.568;13.364;2023-12-28T08:52:27;8.60;99.90
5041;DHT22;2539;52.568;13.364;2023-12-28T08:54:53;8.60;99.90
5041;DHT22;2539;52.568;13.364;2023-12-28T08:57:21;8.60;99.90
5041;DHT22;2539;52.568;13.364;2023-12-28T08:59:47;8.80;99.90
5041;DHT22;2539;52.568;13.364;2023-12-28T09:02:13;8.70;99.90
5041;DHT22;2539;52.568;13.364;2023-12-28T09:04:40;8.70;99.90
5041;DHT22;2539;52.568;13.364;2023-12-28T09:07:06;8.70;99.90
5041;DHT22;2539;52.568;13.364;2023-12-28T09:09:32;8.70;99.90
5041;DHT22;2539;52.568;13.364;2023-12-28T09:11:58;8.70;99.90
5041;DHT22;2539;52.568;13.364;2023-12-28T09:14:24;8.70;99.90
5041;DHT22;2539;52.568;13.364;2023-12-28T09:16:51;8.70;99.90
5041;DHT22;2539;52.568;13.364;2023-12-28T09:19:17;8.70;99.90
5041;DHT22;2539;52.568;13.364;2023-12-28T09:21:43;8.80;99.90
5041;DHT22;2539;52.568;13.364;2023-12-28T09:24:09;8.70;99.90
5041;DHT22;2539;52.568;13.364;2023-12-28T09:26:36;8.80;99.90
5041;DHT22;2539;52.568;13.364;2023-12-28T09:29:02;8.80;99.90
5041;DHT22;2539;52.568;13.364;2023-12-28T09:31:28;8.80;99.90
5041;DHT22;2539;52.568;13.364;2023-12-28T09:33:56;8.80;99.90
5041;DHT22;2539;52.568;13.364;2023-12-28T09:36:21;8.80;99.90
5041;DHT22;2539;52.568;13.364;2023-12-28T09:38:47;8.70;99.90
5041;DHT22;2539;52.568;13.364;2023-12-28T09:41:13;8.70;99.90
5041;DHT22;2539;52.568;13.364;2023-12-28T09:43:59;8.70;99.90
5041;DHT22;2539;52.568;13.364;2023-12-28T09:46:26;8.70;99.90
5041;DHT22;2539;52.568;13.364;2023-12-28T09:48:53;8.70;99.90
5041;DHT22;2539;52.568;13.364;2023-12-28T09:51:22;8.70;99.90
5041;DHT22;2539;52.568;13.364;2023-12-28T09:53:48;8.70;99.90
5041;DHT22;2539;52.568;13.364;2023-12-28T09:56:15;8.70;99.90
5041;DHT22;2539;52.568;13.364;2023-12-28T09:58:46;8.70;99.90
5041;DHT22;2539;52.568;13.364;2023-12-28T10:01:14;8.70;99.90
5041;DHT22;2539;52.568;13.364;2023-12-28T10:03:41;8.70;99.90
5041;DHT22;2539;52.568;13.364;2023-12-28T10:06:08;8.70;99.90
5041;DHT22;2539;52.568;13.364;2023-12-28T10:08:34;8.70;99.90
5041;DHT22;2539;52.568;13.364;2023-12-28T10:11:02;8.90;99.90
5041;DHT22;2539;52.568;13.364;2023-12-28T10:13:29;9.00;99.90
5041;DHT22;2539;52.568;13.364;2023-12-28T10:15:57;9.00;99.90
5041;DHT22;2539;52.568;13.364;2023-12-28T10:18:23;9.10;99.90
5041;DHT22;2539;52.568;13.364;2023-12-28T10:20:50;9.10;99.90
5041;DHT22;2539;52.568;13.364;2023-12-28T10:23:18;9.20;99.90
5041;DHT22;2539;52.568;13.364;2023-12-28T10:25:44;9.20;99.90
5041;DHT22;2539;52.568;13.364;2023-12-28T10:28:12;9.30;99.90
5041;DHT22;2539;52.568;13.364;2023-12-28T10:30:39;9.30;99.90
5041;DHT22;2539;52.568;13.364;2023-12-28T10:33:07;9.40;99.90
5041;DHT22;2539;52.568;13.364;2023-12-28T10:35:33;9.40;99.90
5041;DHT22;2539;52.568;13.364;2023-12-28T10:38:00;9.50;99.90
5041;DHT22;2539;52.568;13.364;2023-12-28T10:40:27;9.60;99.90
5041;DHT22;2539;52.568;13.364;2023-12-28T10:43:02;9.60;99.90
5041;DHT22;2539;52.568;13.364;2023-12-28T10:45:32;9.60;99.90
5041;DHT22;2539;52.568;13.364;2023-12-28T10:48:11;9.60;99.90
5041;DHT22;2539;52.568;13.364;2023-12-28T10:50:42;9.70;99.90
5041;DHT22;2539;52.568;13.364;2023-12-28T10:53:24;9.80;99.90
5041;DHT22;2539;52.568;13.364;2023-12-28T10:56:01;9.90;99.90
5041;DHT22;2539;52.568;13.364;2023-12-28T10:58:48;10.00;99.90
5041;DHT22;2539;52.568;13.364;2023-12-28T11:01:21;10.00;99.90
5041;DHT22;2539;52.568;13.364;2023-12-28T11:03:56;10.10;99.90
5041;DHT22;2539;52.568;13.364;2023-12-28T11:06:25;10.10;99.90
5041;DHT22;2539;52.568;13.364;2023-12-28T11:08:53;10.20;99.90
5041;DHT22;2539;52.568;13.364;2023-12-28T11:11:21;10.10;99.90
5041;DHT22;2539;52.568;13.364;2023-12-28T11:13:49;10.30;99.90
5041;DHT22;2539;52.568;13.364;2023-12-28T11:16:18;10.50;99.90
5041;DHT22;2539;52.568;13.364;2023-12-28T11:18:44;10.60;99.90
5041;DHT22;2539;52.568;13.364;2023-12-28T11:21:11;10.70;99.90
5041;DHT22;2539;52.568;13.364;2023-12-28T11:23:37;10.80;99.90
5041;DHT22;2539;52.568;13.364;2023-12-28T11:26:15;10.80;99.90
5041;DHT22;2539;52.568;13.364;2023-12-28T11:28:42;10.90;99.90
5041;DHT22;2539;52.568;13.364;2023-12-28T11:31:14;10.90;99.90
5041;DHT22;2539;52.568;13.364;2023-12-28T11:33:45;10.90;99.90
5041;DHT22;2539;52.568;13.364;2023-12-28T11:36:19;10.80;99.90
5041;DHT22;2539;52.568;13.364;2023-12-28T11:38:47;10.70;99.90
5041;DHT22;2539;52.568;13.364;2023-12-28T11:41:16;10.60;99.90
5041;DHT22;2539;52.568;13.364;2023-12-28T11:43:42;10.50;99.90
5041;DHT22;2539;52.568;13.364;2023-12-28T11:46:17;10.40;99.90
5041;DHT22;2539;52.568;13.364;2023-12-28T11:48:43;10.40;99.90
5041;DHT22;2539;52.568;13.364;2023-12-28T11:51:10;10.40;99.90
5041;DHT22;2539;52.568;13.364;2023-12-28T11:53:37;10.50;99.90
5041;DHT22;2539;52.568;13.364;2023-12-28T11:56:04;10.50;99.90
5041;DHT22;2539;52.568;13.364;2023-12-28T11:58:33;10.50;99.90
5041;DHT22;2539;52.568;13.364;2023-12-28T12:01:00;10.50;99.90
5041;DHT22;2539;52.568;13.364;2023-12-28T12:03:26;10.40;99.90
5041;DHT22;2539;52.568;13.364;2023-12-28T12:05:53;10.50;99.90
5041;DHT22;2539;52.568;13.364;2023-12-28T12:08:20;10.40;99.90
5041;DHT22;2539;52.568;13.364;2023-12-28T12:10:46;10.40;99.90
5041;DHT22;2539;52.568;13.364;2023-12-28T12:13:14;10.50;99.90
5041;DHT22;2539;52.568;13.364;2023-12-28T12:15:39;10.40;99.90
5041;DHT22;2539;52.568;13.364;2023-12-28T12:18:06;10.50;99.90
5041;DHT22;2539;52.568;13.364;2023-12-28T12:20:32;10.40;99.90
5041;DHT22;2539;52.568;13.364;2023-12-28T12:23:00;10.40;99.90
5041;DHT22;2539;52.568;13.364;2023-12-28T12:25:26;10.40;99.90
5041;DHT22;2539;52.568;13.364;2023-12-28T12:27:54;10.50;99.90
5041;DHT22;2539;52.568;13.364;2023-12-28T12:30:20;10.40;99.90
5041;DHT22;2539;52.568;13.364;2023-12-28T12:32:48;10.50;99.90
5041;DHT22;2539;52.568;13.364;2023-12-28T12:35:14;10.50;99.90
5041;DHT22;2539;52.568;13.364;2023-12-28T12:37:41;10.50;99.90
5041;DHT22;2539;52.568;13.364;2023-12-28T12:40:08;10.50;99.90
5041;DHT22;2539;52.568;13.364;2023-12-28T12:42:34;10.50;99.90
5041;DHT22;2539;52.568;13.364;2023-12-28T12:45:01;10.50;99.90
5041;DHT22;2539;52.568;13.364;2023-12-28T12:47:32;10.50;99.90
5041;DHT22;2539;52.568;13.364;2023-12-28T12:50:00;10.70;99.90
5041;DHT22;2539;52.568;13.364;2023-12-28T12:52:26;10.60;99.90
5041;DHT22;2539;52.568;13.364;2023-12-28T12:54:57;10.60;99.90
5041;DHT22;2539;52.568;13.364;2023-12-28T12:57:24;10.50;99.90
5041;DHT22;2539;52.568;13.364;2023-12-28T12:59:52;10.60;99.90
5041;DHT22;2539;52.568;13.364;2023-12-28T13:02:18;10.50;99.90
5041;DHT22;2539;52.568;13.364;2023-12-28T13:04:45;10.50;99.90
5041;DHT22;2539;52.568;13.364;2023-12-28T13:07:11;10.40;99.90
5041;DHT22;2539;52.568;13.364;2023-12-28T13:09:38;10.30;99.90
5041;DHT22;2539;52.568;13.364;2023-12-28T13:12:04;10.30;99.90
5041;DHT22;2539;52.568;13.364;2023-12-28T13:14:31;10.30;99.90
5041;DHT22;2539;52.568;13.364;2023-12-28T13:16:57;10.20;99.90
5041;DHT22;2539;52.568;13.364;2023-12-28T13:19:23;10.40;99.90
5041;DHT22;2539;52.568;13.364;2023-12-28T13:21:50;10.30;99.90
5041;DHT22;2539;52.568;13.364;2023-12-28T13:24:16;10.20;99.90
5041;DHT22;2539;52.568;13.364;2023-12-28T13:26:42;10.20;99.90
5041;DHT22;2539;52.568;13.364;2023-12-28T13:29:08;10.30;99.90
5041;DHT22;2539;52.568;13.364;2023-12-28T13:31:35;10.20;99.90
5041;DHT22;2539;52.568;13.364;2023-12-28T13:34:01;10.20;99.90
5041;DHT22;2539;52.568;13.364;2023-12-28T13:36:27;10.20;99.90
5041;DHT22;2539;52.568;13.364;2023-12-28T13:38:54;10.20;99.90
5041;DHT22;2539;52.568;13.364;2023-12-28T13:41:21;10.30;99.90
5041;DHT22;2539;52.568;13.364;2023-12-28T13:43:47;10.40;99.90
5041;DHT22;2539;52.568;13.364;2023-12-28T13:46:13;10.50;99.90
5041;DHT22;2539;52.568;13.364;2023-12-28T13:48:39;10.50;99.90
5041;DHT22;2539;52.568;13.364;2023-12-28T13:51:06;10.50;99.90
5041;DHT22;2539;52.568;13.364;2023-12-28T13:53:32;10.50;99.90
5041;DHT22;2539;52.568;13.364;2023-12-28T13:56:06;10.60;99.90
5041;DHT22;2539;52.568;13.364;2023-12-28T13:58:34;10.60;99.90
5041;DHT22;2539;52.568;13.364;2023-12-28T14:01:01;10.50;99.90
5041;DHT22;2539;52.568;13.364;2023-12-28T14:03:27;10.50;99.90
5041;DHT22;2539;52.568;13.364;2023-12-28T14:05:53;10.50;99.90
5041;DHT22;2539;52.568;13.364;2023-12-28T14:08:19;10.50;99.90
5041;DHT22;2539;52.568;13.364;2023-12-28T14:10:46;10.50;99.90
5041;DHT22;2539;52.568;13.364;2023-12-28T14:13:11;10.40;99.90
5041;DHT22;2539;52.568;13.364;2023-12-28T14:15:37;10.40;99.90
5041;DHT22;2539;52.568;13.364;2023-12-28T14:18:04;10.50;99.90
5041;DHT22;2539;52.568;13.364;2023-12-28T14:20:31;10.30;99.90
5041;DHT22;2539;52.568;13.364;2023-12-28T14:22:57;10.20;99.90
5041;DHT22;2539;52.568;13.364;2023-12-28T14:25:24;10.10;99.90
5041;DHT22;2539;52.568;13.364;2023-12-28T14:27:51;9.90;99.90
5041;DHT22;2539;52.568;13.364;2023-12-28T14:30:18;9.80;99.90
5041;DHT22;2539;52.568;13.364;2023-12-28T14:32:44;9.80;99.90
5041;DHT22;2539;52.568;13.364;2023-12-28T14:35:11;9.80;99.90
5041;DHT22;2539;52.568;13.364;2023-12-28T14:37:38;9.80;99.90
5041;DHT22;2539;52.568;13.364;2023-12-28T14:40:05;9.80;99.90
5041;DHT22;2539;52.568;13.364;2023-12-28T14:42:32;9.70;99.90
5041;DHT22;2539;52.568;13.364;2023-12-28T14:45:00;9.70;99.90
5041;DHT22;2539;52.568;13.364;2023-12-28T14:47:27;9.70;99.90
5041;DHT22;2539;52.568;13.364;2023-12-28T14:49:54;9.60;99.90
5041;DHT22;2539;52.568;13.364;2023-12-28T14:52:23;9.60;99.90
5041;DHT22;2539;52.568;13.364;2023-12-28T14:54:50;9.60;99.90
5041;DHT22;2539;52.568;13.364;2023-12-28T14:57:22;9.60;99.90
5041;DHT22;2539;52.568;13.364;2023-12-28T14:59:49;9.70;99.90
5041;DHT22;2539;52.568;13.364;2023-12-28T15:02:15;9.70;99.90
5041;DHT22;2539;52.568;13.364;2023-12-28T15:04:41;9.70;99.90
5041;DHT22;2539;52.568;13.364;2023-12-28T15:07:07;9.70;99.90
5041;DHT22;2539;52.568;13.364;2023-12-28T15:09:33;9.70;99.90
5041;DHT22;2539;52.568;13.364;2023-12-28T15:11:59;9.70;99.90
5041;DHT22;2539;52.568;13.364;2023-12-28T15:14:25;9.70;99.90
5041;DHT22;2539;52.568;13.364;2023-12-28T15:16:51;9.70;99.90
5041;DHT22;2539;52.568;13.364;2023-12-28T15:19:17;9.60;99.90
5041;DHT22;2539;52.568;13.364;2023-12-28T15:21:44;9.60;99.90
5041;DHT22;2539;52.568;13.364;2023-12-28T15:24:11;9.60;99.90
5041;DHT22;2539;52.568;13.364;2023-12-28T15:26:38;9.60;99.90
5041;DHT22;2539;52.568;13.364;2023-12-28T15:29:04;9.50;99.90
5041;DHT22;2539;52.568;13.364;2023-12-28T15:31:30;9.50;99.90
5041;DHT22;2539;52.568;13.364;2023-12-28T15:33:56;9.40;99.90
5041;DHT22;2539;52.568;13.364;2023-12-28T15:36:23;9.40;99.90
5041;DHT22;2539;52.568;13.364;2023-12-28T15:38:49;9.40;99.90
5041;DHT22;2539;52.568;13.364;2023-12-28T15:41:15;9.40;99.90
5041;DHT22;2539;52.568;13.364;2023-12-28T15:43:42;9.40;99.90
5041;DHT22;2539;52.568;13.364;2023-12-28T15:46:08;9.30;99.90
5041;DHT22;2539;52.568;13.364;2023-12-28T15:48:34;9.30;99.90
5041;DHT22;2539;52.568;13.364;2023-12-28T15:51:00;9.30;99.90
5041;DHT22;2539;52.568;13.364;2023-12-28T15:53:27;9.20;99.90
5041;DHT22;2539;52.568;13.364;2023-12-28T15:55:53;9.20;99.90
5041;DHT22;2539;52.568;13.364;2023-12-28T15:58:20;9.10;99.90